Time;durP1;ratioP1;P1;durP2;ratioP2;P2;SDS_P1;SDS_P2;PMS_P1;PMS_P2;Temp;Humidity;BMP_temperature;BMP_pressure;BME280_temperature;BME280_humidity;BME280_pressure;Samples;Min_cycle;Max_cycle;Signal;HPM_P1;HPM_P2
2023/05/02 00:01:07;;;;;;;20.17;14.77;;;;;;;;;;5026127;28;20415;-45
2023/05/02 00:03:33;;;;;;;26.53;16.10;;;;;;;;;;5020156;28;20411;-45
2023/05/02 00:05:59;;;;;;;26.50;18.37;;;;;;;;;;5025436;28;20523;-45
2023/05/02 00:08:25;;;;;;;25.77;17.20;;;;;;;;;;5023831;28;20431;-44
2023/05/02 00:10:51;;;;;;;27.10;17.57;;;;;;;;;;5020476;28;20423;-46
2023/05/02 00:13:17;;;;;;;30.07;18.80;;;;;;;;;;5026312;28;20453;-45
2023/05/02 00:15:43;;;;;;;28.67;18.20;;;;;;;;;;5022854;28;20421;-46
2023/05/02 00:18:09;;;;;;;31.07;18.70;;;;;;;;;;5028015;28;20450;-45
2023/05/02 00:20:35;;;;;;;29.27;18.73;;;;;;;;;;5026331;28;20508;-46
2023/05/02 00:23:01;;;;;;;26.17;18.70;;;;;;;;;;5020155;28;20501;-46
2023/05/02 00:25:27;;;;;;;31.33;18.70;;;;;;;;;;5017360;28;20422;-46
2023/05/02 00:27:54;;;;;;;30.00;19.33;;;;;;;;;;5026012;28;20418;-44
2023/05/02 00:30:20;;;;;;;26.50;17.97;;;;;;;;;;5026829;28;20426;-43
2023/05/02 00:32:46;;;;;;;24.73;17.33;;;;;;;;;;5021475;28;20524;-45
2023/05/02 00:35:12;;;;;;;21.97;16.20;;;;;;;;;;5025750;28;20406;-46
2023/05/02 00:37:38;;;;;;;23.50;17.20;;;;;;;;;;5019588;28;20492;-43
2023/05/02 00:40:04;;;;;;;24.10;17.00;;;;;;;;;;5014752;28;20431;-45
2023/05/02 00:42:33;;;;;;;30.93;17.37;;;;;;;;;;5022173;28;20431;-44
2023/05/02 00:44:59;;;;;;;29.77;18.63;;;;;;;;;;5025940;28;20419;-45
2023/05/02 00:47:25;;;;;;;29.33;18.80;;;;;;;;;;5021699;28;20929;-45
2023/05/02 00:49:52;;;;;;;25.27;17.90;;;;;;;;;;5015002;28;20439;-45
2023/05/02 00:52:19;;;;;;;32.37;19.90;;;;;;;;;;5017938;28;20472;-45
2023/05/02 00:54:46;;;;;;;32.30;19.60;;;;;;;;;;5020623;28;20419;-43
2023/05/02 00:57:12;;;;;;;30.97;21.13;;;;;;;;;;5025846;28;20411;-45
2023/05/02 00:59:38;;;;;;;33.20;20.83;;;;;;;;;;5022117;28;20934;-46
2023/05/02 01:02:11;;;;;;;31.40;20.60;;;;;;;;;;5022847;28;20922;-43
2023/05/02 01:04:43;;;;;;;31.00;21.07;;;;;;;;;;5019106;28;20418;-45
2023/05/02 01:07:17;;;;;;;32.47;19.80;;;;;;;;;;5004784;28;20457;-45
2023/05/02 01:10:02;;;;;;;35.70;20.17;;;;;;;;;;5023858;28;20472;-45
2023/05/02 01:12:35;;;;;;;34.20;23.50;;;;;;;;;;5020338;28;20520;-44
2023/05/02 01:15:05;;;;;;;36.67;21.90;;;;;;;;;;5021611;28;20413;-43
2023/05/02 01:17:32;;;;;;;35.40;21.57;;;;;;;;;;5017558;28;20455;-44
2023/05/02 01:19:59;;;;;;;42.33;22.60;;;;;;;;;;5021178;28;20502;-45
2023/05/02 01:22:29;;;;;;;42.40;23.00;;;;;;;;;;5016638;28;20408;-43
2023/05/02 01:24:58;;;;;;;41.43;22.57;;;;;;;;;;5023766;28;20859;-44
2023/05/02 01:27:30;;;;;;;44.63;24.47;;;;;;;;;;5023728;28;20470;-44
2023/05/02 01:29:57;;;;;;;40.20;23.50;;;;;;;;;;5022506;28;20469;-43
2023/05/02 01:32:24;;;;;;;43.43;24.23;;;;;;;;;;5017352;28;20517;-46
2023/05/02 01:34:51;;;;;;;46.30;24.50;;;;;;;;;;5011340;28;21090;-45
2023/05/02 01:37:17;;;;;;;43.00;23.87;;;;;;;;;;5024891;28;20410;-45
2023/05/02 01:39:43;;;;;;;46.73;24.90;;;;;;;;;;5014299;28;20439;-44
2023/05/02 01:42:11;;;;;;;47.50;25.43;;;;;;;;;;5025305;28;20438;-44
2023/05/02 01:44:38;;;;;;;49.67;26.63;;;;;;;;;;5018484;28;20477;-43
2023/05/02 01:47:05;;;;;;;44.50;25.37;;;;;;;;;;5019924;28;20771;-45
2023/05/02 01:49:32;;;;;;;45.87;24.90;;;;;;;;;;5014815;28;20961;-45
2023/05/02 01:52:02;;;;;;;42.33;25.73;;;;;;;;;;5022192;28;20493;-45
2023/05/02 01:54:29;;;;;;;49.67;25.07;;;;;;;;;;5024958;28;20421;-44
2023/05/02 01:56:56;;;;;;;48.13;24.33;;;;;;;;;;5014499;28;20439;-44
2023/05/02 01:59:23;;;;;;;58.03;30.53;;;;;;;;;;5024393;28;20426;-43
2023/05/02 02:01:50;;;;;;;56.53;30.57;;;;;;;;;;5032394;28;20399;-44
2023/05/02 02:04:18;;;;;;;45.57;26.10;;;;;;;;;;5032726;28;20407;-44
2023/05/02 02:06:47;;;;;;;56.93;30.17;;;;;;;;;;5032530;28;20851;-43
2023/05/02 02:09:13;;;;;;;60.03;29.07;;;;;;;;;;5028881;28;20480;-43
2023/05/02 02:11:45;;;;;;;56.43;27.60;;;;;;;;;;5013055;28;20462;-44
2023/05/02 02:14:21;;;;;;;50.67;25.87;;;;;;;;;;5012848;28;20780;-43
2023/05/02 02:16:48;;;;;;;56.43;30.07;;;;;;;;;;5012894;28;20402;-44
2023/05/02 02:19:14;;;;;;;49.30;28.13;;;;;;;;;;5011833;28;21000;-44
2023/05/02 02:21:43;;;;;;;48.07;27.17;;;;;;;;;;5012987;28;20918;-44
2023/05/02 02:24:09;;;;;;;55.00;26.73;;;;;;;;;;5012852;28;20529;-45
2023/05/02 02:26:35;;;;;;;47.40;26.40;;;;;;;;;;5011336;28;20532;-43
2023/05/02 02:29:02;;;;;;;49.80;28.23;;;;;;;;;;5012306;28;20430;-45
2023/05/02 02:31:35;;;;;;;51.77;26.97;;;;;;;;;;5013006;28;20959;-44
2023/05/02 02:34:01;;;;;;;45.87;25.20;;;;;;;;;;5012818;28;20400;-47
2023/05/02 02:36:42;;;;;;;47.03;25.27;;;;;;;;;;5012840;28;20399;-46
2023/05/02 02:39:08;;;;;;;46.57;24.93;;;;;;;;;;5012694;28;20481;-45
2023/05/02 02:41:53;;;;;;;54.50;27.00;;;;;;;;;;5012471;28;20486;-45
2023/05/02 02:44:34;;;;;;;47.30;23.70;;;;;;;;;;5012728;28;20402;-44
2023/05/02 02:47:06;;;;;;;45.20;23.90;;;;;;;;;;5011907;28;20426;-45
2023/05/02 02:49:35;;;;;;;47.13;23.73;;;;;;;;;;5012841;28;20477;-45
2023/05/02 02:52:17;;;;;;;48.50;24.47;;;;;;;;;;5012926;28;20498;-46
2023/05/02 02:54:46;;;;;;;58.23;25.50;;;;;;;;;;5012766;28;20399;-45
2023/05/02 02:57:18;;;;;;;46.80;24.00;;;;;;;;;;5012584;28;20406;-45
2023/05/02 02:59:49;;;;;;;41.70;22.73;;;;;;;;;;5012515;28;20973;-44
2023/05/02 03:02:17;;;;;;;42.00;22.60;;;;;;;;;;5011323;28;20415;-46
2023/05/02 03:04:43;;;;;;;41.63;22.80;;;;;;;;;;5013045;28;20411;-43
2023/05/02 03:07:09;;;;;;;48.20;23.20;;;;;;;;;;5014392;28;20445;-45
2023/05/02 03:09:45;;;;;;;45.73;24.33;;;;;;;;;;5011906;28;20431;-45
2023/05/02 03:12:11;;;;;;;42.07;21.40;;;;;;;;;;5010742;28;20465;-44
2023/05/02 03:14:38;;;;;;;40.30;20.77;;;;;;;;;;5010735;28;20430;-44
2023/05/02 03:17:04;;;;;;;45.07;22.37;;;;;;;;;;5012148;28;20905;-45
2023/05/02 03:19:30;;;;;;;44.20;21.80;;;;;;;;;;5012983;28;20447;-45
2023/05/02 03:21:56;;;;;;;40.93;21.50;;;;;;;;;;5013497;28;20413;-45
2023/05/02 03:24:22;;;;;;;40.27;19.13;;;;;;;;;;5013498;28;20411;-45
2023/05/02 03:26:48;;;;;;;37.50;17.57;;;;;;;;;;5012946;28;20456;-46
2023/05/02 03:29:14;;;;;;;35.20;17.70;;;;;;;;;;5012721;28;20934;-43
2023/05/02 03:31:40;;;;;;;32.80;17.50;;;;;;;;;;5014604;28;20461;-45
2023/05/02 03:34:06;;;;;;;31.80;16.47;;;;;;;;;;5016945;28;20403;-43
2023/05/02 03:36:32;;;;;;;32.67;16.93;;;;;;;;;;5016384;28;20395;-45
2023/05/02 03:38:58;;;;;;;28.57;15.70;;;;;;;;;;5015333;28;20557;-45
2023/05/02 03:41:24;;;;;;;28.13;14.50;;;;;;;;;;5014892;28;20517;-45
2023/05/02 03:43:51;;;;;;;28.40;15.17;;;;;;;;;;5014900;28;20434;-43
2023/05/02 03:46:16;;;;;;;26.53;13.20;;;;;;;;;;5015389;28;20895;-46
2023/05/02 03:48:45;;;;;;;27.37;13.40;;;;;;;;;;5015988;28;20573;-45
2023/05/02 03:51:11;;;;;;;28.23;14.43;;;;;;;;;;5016933;28;20408;-45
2023/05/02 03:53:37;;;;;;;21.30;12.10;;;;;;;;;;5017907;28;20403;-47
2023/05/02 03:56:03;;;;;;;24.83;14.43;;;;;;;;;;5017104;28;20899;-44
2023/05/02 03:58:29;;;;;;;27.57;12.70;;;;;;;;;;5016777;28;20423;-44
2023/05/02 04:00:55;;;;;;;26.30;13.33;;;;;;;;;;5016842;28;20413;-45
2023/05/02 04:03:21;;;;;;;30.30;15.20;;;;;;;;;;5016523;28;20404;-46
2023/05/02 04:05:47;;;;;;;26.07;13.90;;;;;;;;;;5016309;28;20450;-46
2023/05/02 04:08:13;;;;;;;31.67;15.63;;;;;;;;;;5016574;28;20787;-44
2023/05/02 04:10:39;;;;;;;23.77;12.80;;;;;;;;;;5016704;28;20399;-44
2023/05/02 04:13:07;;;;;;;24.57;13.77;;;;;;;;;;5014715;28;20521;-44
2023/05/02 04:15:33;;;;;;;24.30;13.17;;;;;;;;;;5016631;28;20391;-44
2023/05/02 04:17:59;;;;;;;28.07;14.87;;;;;;;;;;5016142;28;20950;-44
2023/05/02 04:20:25;;;;;;;20.10;11.37;;;;;;;;;;5016138;28;20422;-46
2023/05/02 04:22:51;;;;;;;24.20;13.47;;;;;;;;;;5016545;28;20407;-45
2023/05/02 04:25:18;;;;;;;22.83;11.53;;;;;;;;;;5016541;28;20900;-45
2023/05/02 04:27:44;;;;;;;22.03;13.13;;;;;;;;;;5016154;28;20411;-44
2023/05/02 04:30:10;;;;;;;32.00;15.40;;;;;;;;;;5015655;28;20437;-44
2023/05/02 04:32:37;;;;;;;25.53;13.70;;;;;;;;;;5015373;28;20493;-42
2023/05/02 04:35:05;;;;;;;26.57;13.43;;;;;;;;;;5014630;28;20399;-42
2023/05/02 04:37:31;;;;;;;27.90;13.57;;;;;;;;;;5013573;28;20407;-43
2023/05/02 04:39:58;;;;;;;33.10;14.10;;;;;;;;;;5013833;28;20411;-43
2023/05/02 04:42:24;;;;;;;35.10;16.03;;;;;;;;;;5012118;28;20474;-43
2023/05/02 04:44:50;;;;;;;21.73;12.10;;;;;;;;;;5013426;28;20414;-42
2023/05/02 04:47:16;;;;;;;29.63;13.23;;;;;;;;;;5014287;28;20776;-43
2023/05/02 04:49:44;;;;;;;22.67;12.80;;;;;;;;;;5014031;28;20526;-43
2023/05/02 04:52:10;;;;;;;27.47;11.33;;;;;;;;;;5014093;28;20455;-42
2023/05/02 04:54:36;;;;;;;26.70;15.87;;;;;;;;;;5014173;28;20785;-42
2023/05/02 04:57:06;;;;;;;25.27;12.07;;;;;;;;;;5013736;28;20403;-42
2023/05/02 04:59:32;;;;;;;30.67;13.30;;;;;;;;;;5013703;28;20427;-43
2023/05/02 05:01:58;;;;;;;30.30;13.87;;;;;;;;;;5013932;28;20409;-42
2023/05/02 05:04:24;;;;;;;25.67;13.33;;;;;;;;;;5014013;28;20408;-42
2023/05/02 05:06:50;;;;;;;32.93;14.73;;;;;;;;;;5013817;28;20785;-42
2023/05/02 05:09:16;;;;;;;21.93;13.37;;;;;;;;;;5013488;28;20437;-42
2023/05/02 05:11:42;;;;;;;27.57;14.10;;;;;;;;;;5012575;28;20549;-43
2023/05/02 05:14:08;;;;;;;21.67;13.10;;;;;;;;;;5012902;28;20462;-42
2023/05/02 05:16:34;;;;;;;29.20;13.93;;;;;;;;;;5013756;28;20775;-42
2023/05/02 05:19:00;;;;;;;24.67;13.80;;;;;;;;;;5013164;28;20546;-43
2023/05/02 05:21:27;;;;;;;23.97;12.63;;;;;;;;;;5013550;28;20399;-43
2023/05/02 05:23:53;;;;;;;32.50;14.70;;;;;;;;;;5013521;28;20789;-42
2023/05/02 05:26:20;;;;;;;27.63;14.40;;;;;;;;;;5017339;28;20428;-43
2023/05/02 05:28:46;;;;;;;32.07;15.33;;;;;;;;;;5022433;28;20510;-42
2023/05/02 05:31:15;;;;;;;28.73;15.20;;;;;;;;;;5015738;28;20501;-42
2023/05/02 05:33:42;;;;;;;34.20;14.90;;;;;;;;;;5011412;28;20412;-43
2023/05/02 05:36:09;;;;;;;20.40;12.60;;;;;;;;;;5030439;28;20493;-42
2023/05/02 05:38:36;;;;;;;23.80;10.80;;;;;;;;;;5021702;28;20449;-43
2023/05/02 05:41:02;;;;;;;20.33;9.80;;;;;;;;;;5023029;28;20434;-42
2023/05/02 05:43:28;;;;;;;15.40;8.03;;;;;;;;;;5026116;28;20517;-43
2023/05/02 05:45:55;;;;;;;13.03;9.30;;;;;;;;;;5017250;28;20421;-43
2023/05/02 05:48:22;;;;;;;12.20;8.77;;;;;;;;;;5013295;28;20491;-42
2023/05/02 05:50:48;;;;;;;18.10;8.57;;;;;;;;;;5023030;28;20781;-42
2023/05/02 05:53:14;;;;;;;15.83;8.87;;;;;;;;;;5022633;28;20466;-42
2023/05/02 05:55:41;;;;;;;12.60;7.90;;;;;;;;;;5017367;28;20473;-42
2023/05/02 05:58:07;;;;;;;15.97;9.73;;;;;;;;;;5022696;28;20432;-44
2023/05/02 06:00:36;;;;;;;13.90;9.10;;;;;;;;;;5016752;28;20439;-44
2023/05/02 06:03:03;;;;;;;12.40;8.20;;;;;;;;;;5015875;28;20407;-43
2023/05/02 06:05:29;;;;;;;14.87;8.90;;;;;;;;;;5010121;28;20441;-42
2023/05/02 06:07:56;;;;;;;15.47;8.83;;;;;;;;;;5019909;28;20422;-42
2023/05/02 06:10:22;;;;;;;14.63;9.57;;;;;;;;;;5017545;28;20464;-43
2023/05/02 06:12:48;;;;;;;18.67;9.83;;;;;;;;;;5012068;28;20475;-43
2023/05/02 06:15:14;;;;;;;9.03;5.93;;;;;;;;;;5017718;28;20419;-42
2023/05/02 06:17:40;;;;;;;9.60;6.57;;;;;;;;;;5017296;28;20784;-42
2023/05/02 06:20:06;;;;;;;13.60;8.00;;;;;;;;;;5010723;28;20425;-42
2023/05/02 06:22:32;;;;;;;15.13;7.03;;;;;;;;;;5021550;28;20420;-42
2023/05/02 06:24:59;;;;;;;11.73;7.60;;;;;;;;;;5022251;28;20428;-43
2023/05/02 06:27:25;;;;;;;12.80;8.00;;;;;;;;;;5017093;28;20418;-43
2023/05/02 06:29:51;;;;;;;15.03;7.97;;;;;;;;;;5010715;28;20436;-43
2023/05/02 06:32:17;;;;;;;15.47;8.63;;;;;;;;;;5018475;28;20462;-43
2023/05/02 06:34:43;;;;;;;14.57;9.20;;;;;;;;;;5019430;28;20985;-43
2023/05/02 06:37:10;;;;;;;10.43;7.93;;;;;;;;;;5023970;28;20452;-42
2023/05/02 06:39:36;;;;;;;13.10;8.60;;;;;;;;;;5017425;28;20427;-44
2023/05/02 06:42:02;;;;;;;14.67;7.73;;;;;;;;;;5015150;28;20422;-44
2023/05/02 06:44:28;;;;;;;13.53;8.93;;;;;;;;;;5022854;28;20457;-42
2023/05/02 06:46:57;;;;;;;14.43;8.57;;;;;;;;;;5007530;28;20419;-42
2023/05/02 06:49:23;;;;;;;16.37;9.30;;;;;;;;;;5021696;28;20429;-43
2023/05/02 06:51:49;;;;;;;14.33;9.03;;;;;;;;;;5017189;28;20955;-43
2023/05/02 06:54:15;;;;;;;11.40;7.67;;;;;;;;;;5020481;28;20409;-43
2023/05/02 06:56:42;;;;;;;14.47;8.90;;;;;;;;;;5017249;28;20419;-43
2023/05/02 06:59:08;;;;;;;11.90;8.73;;;;;;;;;;5014719;28;20983;-43
2023/05/02 07:01:34;;;;;;;14.83;8.87;;;;;;;;;;5011070;28;20414;-43
2023/05/02 07:04:04;;;;;;;13.30;7.50;;;;;;;;;;5018489;28;20900;-43
2023/05/02 07:06:30;;;;;;;14.00;8.70;;;;;;;;;;5020336;28;20435;-43
2023/05/02 07:08:56;;;;;;;11.40;7.70;;;;;;;;;;5017400;28;20440;-42
2023/05/02 07:11:22;;;;;;;18.67;11.60;;;;;;;;;;5018544;28;20465;-43
2023/05/02 07:13:49;;;;;;;18.60;8.67;;;;;;;;;;5028834;28;20426;-44
2023/05/02 07:16:15;;;;;;;11.23;7.53;;;;;;;;;;5017017;28;20408;-43
2023/05/02 07:18:41;;;;;;;9.93;6.87;;;;;;;;;;5022235;28;20443;-44
2023/05/02 07:21:07;;;;;;;10.87;7.00;;;;;;;;;;5023202;28;20418;-43
2023/05/02 07:23:33;;;;;;;7.83;6.40;;;;;;;;;;5022288;28;20411;-43
2023/05/02 07:25:59;;;;;;;16.67;6.40;;;;;;;;;;5027265;28;20870;-43
2023/05/02 07:28:25;;;;;;;14.60;8.97;;;;;;;;;;5034833;28;20797;-44
2023/05/02 07:30:51;;;;;;;11.10;7.07;;;;;;;;;;5034273;28;20764;-43
2023/05/02 07:33:17;;;;;;;8.50;6.50;;;;;;;;;;5035108;28;20608;-42
2023/05/02 07:35:44;;;;;;;7.57;5.83;;;;;;;;;;5035323;28;20403;-42
2023/05/02 07:38:09;;;;;;;10.30;8.10;;;;;;;;;;5024171;28;20451;-42
2023/05/02 07:40:35;;;;;;;8.30;6.60;;;;;;;;;;5019853;28;20408;-43
2023/05/02 07:43:01;;;;;;;17.60;7.43;;;;;;;;;;5020890;28;20470;-43
2023/05/02 07:45:28;;;;;;;11.63;7.47;;;;;;;;;;5020231;28;20895;-43
2023/05/02 07:47:54;;;;;;;12.10;8.07;;;;;;;;;;5016374;28;20415;-43
2023/05/02 07:50:19;;;;;;;9.90;6.83;;;;;;;;;;5027572;28;20978;-43
2023/05/02 07:52:45;;;;;;;17.27;6.10;;;;;;;;;;5026486;28;20465;-43
2023/05/02 07:55:12;;;;;;;9.40;6.70;;;;;;;;;;5019680;28;20411;-43
2023/05/02 07:57:38;;;;;;;8.03;5.87;;;;;;;;;;5015073;28;20462;-43
2023/05/02 08:00:09;;;;;;;11.53;8.10;;;;;;;;;;5021261;28;20454;-43
2023/05/02 08:02:38;;;;;;;8.13;6.13;;;;;;;;;;5022830;28;21232;-42
2023/05/02 08:05:04;;;;;;;9.47;5.47;;;;;;;;;;5015005;28;20921;-43
2023/05/02 08:07:32;;;;;;;7.00;4.40;;;;;;;;;;5020617;28;20418;-44
2023/05/02 08:09:58;;;;;;;5.03;4.50;;;;;;;;;;5022931;28;20926;-42
2023/05/02 08:12:24;;;;;;;5.63;4.30;;;;;;;;;;5015441;28;20941;-42
2023/05/02 08:14:50;;;;;;;5.03;3.90;;;;;;;;;;5018440;28;20419;-43
2023/05/02 08:17:16;;;;;;;4.67;3.67;;;;;;;;;;5025791;28;20417;-43
2023/05/02 08:19:41;;;;;;;4.93;3.57;;;;;;;;;;5021241;28;20451;-42
2023/05/02 08:22:07;;;;;;;5.80;3.47;;;;;;;;;;5023881;28;20520;-43
2023/05/02 08:24:33;;;;;;;4.93;3.77;;;;;;;;;;5019038;28;20422;-43
2023/05/02 08:27:02;;;;;;;7.17;3.90;;;;;;;;;;5019661;28;20419;-44
2023/05/02 08:29:28;;;;;;;5.87;3.93;;;;;;;;;;5008333;28;20431;-43
2023/05/02 08:31:54;;;;;;;5.30;4.10;;;;;;;;;;5029416;28;20523;-43
2023/05/02 08:34:20;;;;;;;5.93;4.00;;;;;;;;;;5023669;28;20693;-42
2023/05/02 08:36:46;;;;;;;5.43;4.10;;;;;;;;;;5017960;28;20418;-42
2023/05/02 08:39:12;;;;;;;7.03;4.03;;;;;;;;;;5021834;28;20513;-42
2023/05/02 08:41:38;;;;;;;7.40;4.27;;;;;;;;;;5018884;28;20878;-42
2023/05/02 08:44:06;;;;;;;6.17;3.93;;;;;;;;;;5014099;28;20417;-42
2023/05/02 08:46:34;;;;;;;5.97;5.13;;;;;;;;;;5019952;28;20427;-42
2023/05/02 08:49:00;;;;;;;9.00;4.40;;;;;;;;;;5021381;28;20445;-42
2023/05/02 08:51:27;;;;;;;10.40;4.90;;;;;;;;;;5021875;28;20461;-42
2023/05/02 08:53:54;;;;;;;8.97;5.20;;;;;;;;;;5014636;28;20463;-44
2023/05/02 08:56:20;;;;;;;12.37;5.00;;;;;;;;;;5025514;28;20434;-42
2023/05/02 08:58:46;;;;;;;6.43;5.07;;;;;;;;;;5032978;28;20422;-42
2023/05/02 09:01:16;;;;;;;10.53;4.40;;;;;;;;;;5032817;28;20394;-43
2023/05/02 09:03:43;;;;;;;5.90;4.40;;;;;;;;;;5033777;28;20409;-43
2023/05/02 09:06:13;;;;;;;10.53;5.10;;;;;;;;;;5033935;28;20811;-42
2023/05/02 09:08:40;;;;;;;8.73;4.53;;;;;;;;;;5033193;28;20422;-42
2023/05/02 09:11:06;;;;;;;5.93;4.77;;;;;;;;;;5033420;28;20453;-43
2023/05/02 09:13:37;;;;;;;8.40;4.80;;;;;;;;;;5033484;28;20415;-42
2023/05/02 09:16:03;;;;;;;6.60;4.23;;;;;;;;;;5033371;28;20411;-42
2023/05/02 09:18:33;;;;;;;8.47;5.43;;;;;;;;;;5012141;28;20482;-42
2023/05/02 09:21:00;;;;;;;7.17;5.03;;;;;;;;;;5013537;28;20410;-42
2023/05/02 09:23:36;;;;;;;11.00;5.90;;;;;;;;;;5013529;28;20405;-43
2023/05/02 09:26:10;;;;;;;11.23;5.37;;;;;;;;;;5013541;28;20414;-42
2023/05/02 09:28:52;;;;;;;9.10;5.30;;;;;;;;;;5012716;28;20462;-42
2023/05/02 09:31:20;;;;;;;10.00;5.00;;;;;;;;;;5013367;28;20748;-42
2023/05/02 09:33:46;;;;;;;18.23;6.00;;;;;;;;;;5013348;28;20395;-44
2023/05/02 09:36:14;;;;;;;11.10;5.13;;;;;;;;;;5013106;28;20407;-43
2023/05/02 09:38:40;;;;;;;10.03;5.40;;;;;;;;;;5012922;28;20458;-42
2023/05/02 09:41:06;;;;;;;12.60;4.77;;;;;;;;;;5013274;28;20395;-42
2023/05/02 09:43:32;;;;;;;7.70;5.33;;;;;;;;;;5013128;28;20538;-42
2023/05/02 09:45:58;;;;;;;7.23;4.47;;;;;;;;;;5013203;28;20512;-43
2023/05/02 09:48:25;;;;;;;9.83;5.53;;;;;;;;;;5008693;28;20450;-42
2023/05/02 09:50:51;;;;;;;9.53;5.63;;;;;;;;;;5012660;28;20411;-43
2023/05/02 09:53:17;;;;;;;9.43;4.90;;;;;;;;;;5010762;28;20475;-42
2023/05/02 09:55:44;;;;;;;6.90;5.03;;;;;;;;;;5012688;28;20413;-42
2023/05/02 09:58:22;;;;;;;8.90;5.87;;;;;;;;;;5012573;28;20469;-42
2023/05/02 10:00:52;;;;;;;8.83;5.03;;;;;;;;;;5012808;28;20767;-43
2023/05/02 10:03:18;;;;;;;12.17;5.47;;;;;;;;;;5012640;28;20454;-42
2023/05/02 10:05:45;;;;;;;9.97;4.80;;;;;;;;;;5012748;28;20860;-42
2023/05/02 10:08:12;;;;;;;14.97;8.70;;;;;;;;;;5010530;28;20444;-43
2023/05/02 10:10:43;;;;;;;6.40;4.40;;;;;;;;;;4996218;28;20438;-43
2023/05/02 10:13:09;;;;;;;7.67;4.90;;;;;;;;;;5011811;28;20494;-45
2023/05/02 10:15:39;;;;;;;5.00;3.70;;;;;;;;;;5012415;28;20404;-44
2023/05/02 10:18:09;;;;;;;9.30;5.90;;;;;;;;;;5011385;28;20860;-42
2023/05/02 10:20:37;;;;;;;6.37;4.67;;;;;;;;;;5012493;28;20419;-42
2023/05/02 10:23:04;;;;;;;8.37;5.37;;;;;;;;;;5011671;28;20411;-43
2023/05/02 10:25:32;;;;;;;5.50;4.13;;;;;;;;;;5012210;28;20795;-43
2023/05/02 10:27:59;;;;;;;9.97;4.20;;;;;;;;;;5008634;28;20518;-44
2023/05/02 10:30:25;;;;;;;7.60;4.70;;;;;;;;;;5011987;28;20399;-43
2023/05/02 10:32:55;;;;;;;5.70;4.17;;;;;;;;;;5012106;28;20455;-43
2023/05/02 10:35:22;;;;;;;4.50;3.70;;;;;;;;;;5012204;28;20918;-42
2023/05/02 10:37:48;;;;;;;5.70;4.10;;;;;;;;;;5012113;28;20488;-42
2023/05/02 10:40:14;;;;;;;4.83;3.87;;;;;;;;;;5011383;28;20427;-43
2023/05/02 10:42:44;;;;;;;5.80;4.10;;;;;;;;;;5010889;28;20441;-44
2023/05/02 10:45:11;;;;;;;8.73;4.67;;;;;;;;;;5013498;28;20411;-46
2023/05/02 10:47:37;;;;;;;6.80;3.87;;;;;;;;;;5012339;28;20426;-46
2023/05/02 10:50:04;;;;;;;7.63;4.43;;;;;;;;;;5012842;28;20911;-44
2023/05/02 10:52:34;;;;;;;12.37;4.70;;;;;;;;;;5012450;28;20463;-46
2023/05/02 10:55:14;;;;;;;6.50;4.47;;;;;;;;;;5012391;28;20488;-44
2023/05/02 10:57:58;;;;;;;8.63;4.30;;;;;;;;;;5012400;28;20389;-44
2023/05/02 11:00:25;;;;;;;13.43;6.20;;;;;;;;;;5012173;28;20401;-45
2023/05/02 11:03:13;;;;;;;21.60;13.75;;;;;;;;;;5728592;23;20452;-44
2023/05/02 11:05:57;;;;;;;13.03;6.97;;;;;;;;;;5030031;28;20233;-44
2023/05/02 11:08:23;;;;;;;9.27;6.03;;;;;;;;;;5031352;28;20430;-44
2023/05/02 11:10:49;;;;;;;9.10;5.77;;;;;;;;;;5031780;28;20414;-45
2023/05/02 11:13:15;;;;;;;8.57;6.00;;;;;;;;;;5038181;28;21033;-44
2023/05/02 11:15:41;;;;;;;8.10;5.67;;;;;;;;;;5050564;28;21195;-45
2023/05/02 11:18:14;;;;;;;11.13;5.90;;;;;;;;;;5051941;28;20971;-44
2023/05/02 11:20:44;;;;;;;11.10;7.07;;;;;;;;;;5051350;28;20398;-45
2023/05/02 11:23:24;;;;;;;11.40;6.23;;;;;;;;;;5049368;28;20450;-45
2023/05/02 11:25:59;;;;;;;11.20;7.27;;;;;;;;;;5051193;28;20491;-44
2023/05/02 11:28:38;;;;;;;11.60;6.13;;;;;;;;;;5051325;28;20472;-44
2023/05/02 11:31:08;;;;;;;15.67;6.67;;;;;;;;;;5051737;28;20405;-47
2023/05/02 11:33:34;;;;;;;9.10;5.93;;;;;;;;;;5050752;28;20462;-46
2023/05/02 11:36:00;;;;;;;7.73;6.93;;;;;;;;;;5050960;28;20762;-47
2023/05/02 11:38:34;;;;;;;13.23;6.63;;;;;;;;;;5049927;28;20492;-46
2023/05/02 11:41:01;;;;;;;10.30;5.57;;;;;;;;;;5051203;28;20422;-47
2023/05/02 11:43:28;;;;;;;9.27;5.73;;;;;;;;;;5050860;28;20387;-44
2023/05/02 11:45:55;;;;;;;9.67;6.10;;;;;;;;;;5051142;28;20406;-44
2023/05/02 11:48:21;;;;;;;14.17;5.93;;;;;;;;;;5051038;28;20411;-46
2023/05/02 11:50:49;;;;;;;10.73;6.00;;;;;;;;;;5050882;28;20410;-46
2023/05/02 11:53:16;;;;;;;11.57;6.00;;;;;;;;;;5052957;28;20469;-46
2023/05/02 11:55:49;;;;;;;17.10;7.77;;;;;;;;;;5054669;28;20437;-44
2023/05/02 11:58:16;;;;;;;10.00;5.70;;;;;;;;;;5051329;28;20429;-46
2023/05/02 12:00:45;;;;;;;9.27;6.30;;;;;;;;;;5053670;28;20436;-44
2023/05/02 12:03:21;;;;;;;14.13;6.03;;;;;;;;;;5053948;28;20428;-44
2023/05/02 12:05:47;;;;;;;8.67;5.27;;;;;;;;;;5054768;28;20427;-46
2023/05/02 12:08:27;;;;;;;11.30;5.67;;;;;;;;;;5054498;28;20426;-46
2023/05/02 12:10:56;;;;;;;11.50;5.50;;;;;;;;;;5054603;28;20407;-46
2023/05/02 12:13:23;;;;;;;9.10;5.37;;;;;;;;;;5054100;28;20965;-46
2023/05/02 12:15:50;;;;;;;13.97;6.30;;;;;;;;;;5054433;28;20808;-45
2023/05/02 12:18:17;;;;;;;9.00;5.30;;;;;;;;;;5054359;28;20762;-45
2023/05/02 12:20:43;;;;;;;11.23;4.97;;;;;;;;;;5054209;28;20412;-45
2023/05/02 12:23:10;;;;;;;9.40;5.47;;;;;;;;;;5051634;28;20454;-44
2023/05/02 12:25:39;;;;;;;7.77;5.40;;;;;;;;;;5054100;28;20376;-45
2023/05/02 12:28:06;;;;;;;12.50;5.50;;;;;;;;;;5053975;28;20409;-44
2023/05/02 12:30:32;;;;;;;7.63;4.93;;;;;;;;;;5054028;28;20407;-44
2023/05/02 12:33:00;;;;;;;6.40;5.27;;;;;;;;;;5053735;28;20464;-46
2023/05/02 12:35:27;;;;;;;8.90;4.30;;;;;;;;;;5053934;28;20764;-44
2023/05/02 12:37:53;;;;;;;10.10;4.77;;;;;;;;;;5053924;28;20452;-45
2023/05/02 12:40:19;;;;;;;8.00;4.60;;;;;;;;;;5054038;28;20397;-46
2023/05/02 12:43:06;;;;;;;8.70;5.00;;;;;;;;;;5053319;28;20400;-45
2023/05/02 12:45:35;;;;;;;9.70;5.53;;;;;;;;;;5053952;28;20413;-45
2023/05/02 12:48:01;;;;;;;7.03;4.37;;;;;;;;;;5053723;28;20484;-45
2023/05/02 12:50:39;;;;;;;6.57;4.77;;;;;;;;;;5053984;28;20415;-46
2023/05/02 12:53:06;;;;;;;9.10;5.47;;;;;;;;;;5053150;28;20465;-45
2023/05/02 12:55:32;;;;;;;6.07;5.20;;;;;;;;;;5047575;28;20444;-44
2023/05/02 12:58:12;;;;;;;7.20;4.87;;;;;;;;;;5053707;28;20487;-46
2023/05/02 13:00:41;;;;;;;7.43;4.73;;;;;;;;;;5053660;28;20400;-45
2023/05/02 13:03:08;;;;;;;8.93;4.70;;;;;;;;;;5053001;28;20408;-48
2023/05/02 13:05:34;;;;;;;11.03;4.43;;;;;;;;;;5052519;28;20441;-45
2023/05/02 13:08:01;;;;;;;6.73;4.93;;;;;;;;;;5053388;28;20427;-45
2023/05/02 13:10:27;;;;;;;8.03;5.73;;;;;;;;;;5053574;28;20962;-45
2023/05/02 13:12:53;;;;;;;5.23;4.50;;;;;;;;;;5053146;28;20434;-45
2023/05/02 13:15:19;;;;;;;5.93;5.13;;;;;;;;;;5053241;28;20443;-45
2023/05/02 13:17:45;;;;;;;8.10;4.83;;;;;;;;;;5053309;28;20404;-46
2023/05/02 13:20:11;;;;;;;8.80;5.30;;;;;;;;;;5053123;28;20473;-48
2023/05/02 13:22:37;;;;;;;8.17;6.03;;;;;;;;;;5052938;28;20444;-46
2023/05/02 13:25:04;;;;;;;8.10;5.13;;;;;;;;;;5049082;28;20426;-46
2023/05/02 13:27:30;;;;;;;6.50;4.60;;;;;;;;;;5052032;28;20429;-45
2023/05/02 13:29:56;;;;;;;7.37;4.20;;;;;;;;;;5053431;28;20412;-48
2023/05/02 13:32:22;;;;;;;8.37;5.13;;;;;;;;;;5052732;28;20465;-44
2023/05/02 13:34:48;;;;;;;6.57;5.43;;;;;;;;;;5052630;28;20825;-47
2023/05/02 13:37:14;;;;;;;11.30;5.33;;;;;;;;;;5052938;28;20420;-47
2023/05/02 13:39:40;;;;;;;5.43;4.90;;;;;;;;;;5037226;28;20504;-47
2023/05/02 13:42:06;;;;;;;8.27;5.27;;;;;;;;;;5032578;28;20447;-46
2023/05/02 13:44:32;;;;;;;5.87;4.70;;;;;;;;;;5032441;28;20431;-46
2023/05/02 13:46:58;;;;;;;8.23;5.03;;;;;;;;;;5032627;28;20401;-47
2023/05/02 13:49:24;;;;;;;9.57;5.80;;;;;;;;;;5032579;28;20442;-46
2023/05/02 13:51:50;;;;;;;7.33;5.57;;;;;;;;;;5032543;28;20462;-46
2023/05/02 13:54:16;;;;;;;8.60;6.10;;;;;;;;;;5040391;28;20451;-46
2023/05/02 13:56:42;;;;;;;7.40;4.37;;;;;;;;;;5052468;28;20410;-47
2023/05/02 13:59:09;;;;;;;8.33;4.97;;;;;;;;;;5052364;28;20404;-46
2023/05/02 14:01:35;;;;;;;10.40;4.63;;;;;;;;;;5052371;28;20828;-47
2023/05/02 14:04:07;;;;;;;5.00;4.50;;;;;;;;;;5036813;28;20439;-46
2023/05/02 14:06:33;;;;;;;5.13;4.47;;;;;;;;;;5032455;28;20429;-45
2023/05/02 14:08:59;;;;;;;9.20;4.57;;;;;;;;;;5032239;28;21141;-46
2023/05/02 14:11:26;;;;;;;5.90;4.30;;;;;;;;;;5032396;28;20493;-46
2023/05/02 14:13:52;;;;;;;10.37;6.57;;;;;;;;;;5031986;28;20418;-47
2023/05/02 14:16:18;;;;;;;11.30;4.70;;;;;;;;;;5032155;28;20910;-47
2023/05/02 14:18:48;;;;;;;8.30;4.73;;;;;;;;;;5032053;28;20398;-47
2023/05/02 14:21:15;;;;;;;7.27;4.93;;;;;;;;;;5032303;28;20838;-48
2023/05/02 14:23:41;;;;;;;6.97;5.30;;;;;;;;;;5030133;28;20469;-46
2023/05/02 14:26:07;;;;;;;9.00;4.50;;;;;;;;;;5051255;28;20452;-46
2023/05/02 14:28:33;;;;;;;7.07;4.80;;;;;;;;;;5050859;28;20466;-47
2023/05/02 14:30:59;;;;;;;6.37;5.10;;;;;;;;;;5051781;28;20408;-46